sensor_id;sensor_type;location;lat;lon;timestamp;pressure;altitude;pressure_sealevel;temperature;humidity
2192;BME280;1102;49.718;11.902;2022-11-02T00:03:46;96778.84;;;4.77;100.00
2192;BME280;1102;49.718;11.902;2022-11-02T00:06:13;96767.09;;;4.98;100.00
2192;BME280;1102;49.718;11.902;2022-11-02T00:08:40;96822.94;;;5.22;100.00
2192;BME280;1102;49.718;11.902;2022-11-02T00:11:07;96825.81;;;5.21;100.00
2192;BME280;1102;49.718;11.902;2022-11-02T00:13:34;96781.75;;;4.99;100.00
2192;BME280;1102;49.718;11.902;2022-11-02T00:16:04;96832.59;;;4.98;100.00
2192;BME280;1102;49.718;11.902;2022-11-02T00:18:35;96836.41;;;5.11;100.00
2192;BME280;1102;49.718;11.902;2022-11-02T00:21:03;96841.31;;;5.17;100.00
2192;BME280;1102;49.718;11.902;2022-11-02T00:23:30;96754.56;;;4.42;100.00
2192;BME280;1102;49.718;11.902;2022-11-02T00:25:58;96841.41;;;5.07;100.00
2192;BME280;1102;49.718;11.902;2022-11-02T00:28:29;96844.97;;;5.21;100.00
2192;BME280;1102;49.718;11.902;2022-11-02T00:30:56;96817.13;;;5.25;100.00
2192;BME280;1102;49.718;11.902;2022-11-02T00:33:25;96856.38;;;5.54;100.00
2192;BME280;1102;49.718;11.902;2022-11-02T00:35:52;96838.59;;;5.51;100.00
2192;BME280;1102;49.718;11.902;2022-11-02T00:38:20;96845.59;;;5.32;100.00
2192;BME280;1102;49.718;11.902;2022-11-02T00:40:46;96808.28;;;4.92;100.00
2192;BME280;1102;49.718;11.902;2022-11-02T00:43:13;96842.53;;;5.01;100.00
2192;BME280;1102;49.718;11.902;2022-11-02T00:45:40;96799.66;;;4.63;100.00
2192;BME280;1102;49.718;11.902;2022-11-02T00:48:06;96781.34;;;4.63;100.00
2192;BME280;1102;49.718;11.902;2022-11-02T00:50:33;96849.94;;;5.18;100.00
2192;BME280;1102;49.718;11.902;2022-11-02T00:53:01;96814.66;;;5.10;100.00
2192;BME280;1102;49.718;11.902;2022-11-02T00:55:28;96770.03;;;4.91;100.00
2192;BME280;1102;49.718;11.902;2022-11-02T00:57:59;96814.78;;;5.24;100.00
2192;BME280;1102;49.718;11.902;2022-11-02T01:00:26;96849.84;;;5.52;100.00
2192;BME280;1102;49.718;11.902;2022-11-02T01:02:52;96855.31;;;5.31;100.00
2192;BME280;1102;49.718;11.902;2022-11-02T01:05:19;96835.28;;;5.17;100.00
2192;BME280;1102;49.718;11.902;2022-11-02T01:07:46;96818.09;;;5.05;100.00
2192;BME280;1102;49.718;11.902;2022-11-02T01:10:13;96823.63;;;5.04;100.00
2192;BME280;1102;49.718;11.902;2022-11-02T01:12:40;96747.50;;;4.66;100.00
2192;BME280;1102;49.718;11.902;2022-11-02T01:15:09;96832.94;;;5.15;100.00
2192;BME280;1102;49.718;11.902;2022-11-02T01:17:37;96853.16;;;5.39;100.00
2192;BME280;1102;49.718;11.902;2022-11-02T01:20:04;96848.91;;;5.43;100.00
2192;BME280;1102;49.718;11.902;2022-11-02T01:22:31;96823.41;;;5.24;100.00
2192;BME280;1102;49.718;11.902;2022-11-02T01:24:58;96820.22;;;5.27;100.00
2192;BME280;1102;49.718;11.902;2022-11-02T01:27:25;96806.47;;;5.17;100.00
2192;BME280;1102;49.718;11.902;2022-11-02T01:29:52;96850.97;;;5.46;100.00
2192;BME280;1102;49.718;11.902;2022-11-02T01:32:18;96816.16;;;5.16;100.00
2192;BME280;1102;49.718;11.902;2022-11-02T01:34:45;96796.59;;;5.09;100.00
2192;BME280;1102;49.718;11.902;2022-11-02T01:37:14;96792.56;;;4.92;100.00
2192;BME280;1102;49.718;11.902;2022-11-02T01:39:40;96812.94;;;5.00;100.00
2192;BME280;1102;49.718;11.902;2022-11-02T01:42:24;96843.53;;;5.05;100.00
2192;BME280;1102;49.718;11.902;2022-11-02T01:44:51;96803.16;;;4.82;100.00
2192;BME280;1102;49.718;11.902;2022-11-02T01:47:30;96826.03;;;5.00;100.00
2192;BME280;1102;49.718;11.902;2022-11-02T01:50:05;96841.66;;;5.11;100.00
2192;BME280;1102;49.718;11.902;2022-11-02T01:52:35;96813.50;;;4.97;100.00
2192;BME280;1102;49.718;11.902;2022-11-02T01:55:10;96852.63;;;5.13;100.00
2192;BME280;1102;49.718;11.902;2022-11-02T01:57:39;96805.00;;;4.82;100.00
2192;BME280;1102;49.718;11.902;2022-11-02T02:00:10;96861.59;;;5.07;100.00
2192;BME280;1102;49.718;11.902;2022-11-02T02:03:03;96861.50;;;5.17;100.00
2192;BME280;1102;49.718;11.902;2022-11-02T02:05:33;96820.09;;;4.90;100.00
2192;BME280;1102;49.718;11.902;2022-11-02T02:08:01;96829.38;;;5.06;100.00
2192;BME280;1102;49.718;11.902;2022-11-02T02:10:30;96828.94;;;5.23;100.00
2192;BME280;1102;49.718;11.902;2022-11-02T02:12:57;96852.88;;;5.40;100.00
2192;BME280;1102;49.718;11.902;2022-11-02T02:15:27;96833.28;;;5.09;100.00
2192;BME280;1102;49.718;11.902;2022-11-02T02:18:11;96845.00;;;5.16;100.00
2192;BME280;1102;49.718;11.902;2022-11-02T02:33:00;96856.63;;;4.76;100.00
2192;BME280;1102;49.718;11.902;2022-11-02T02:35:17;96833.97;;;4.61;100.00
2192;BME280;1102;49.718;11.902;2022-11-02T02:40:29;96826.72;;;4.53;100.00
2192;BME280;1102;49.718;11.902;2022-11-02T02:43:12;96804.59;;;4.35;100.00
2192;BME280;1102;49.718;11.902;2022-11-02T02:45:51;96831.44;;;4.51;100.00
2192;BME280;1102;49.718;11.902;2022-11-02T02:48:21;96805.38;;;4.41;100.00
2192;BME280;1102;49.718;11.902;2022-11-02T02:50:51;96834.38;;;4.44;100.00
2192;BME280;1102;49.718;11.902;2022-11-02T02:53:27;96849.47;;;4.58;100.00
2192;BME280;1102;49.718;11.902;2022-11-02T02:55:57;96845.13;;;4.43;100.00
2192;BME280;1102;49.718;11.902;2022-11-02T02:58:29;96733.66;;;3.69;100.00
2192;BME280;1102;49.718;11.902;2022-11-02T03:00:59;96839.41;;;4.41;100.00
2192;BME280;1102;49.718;11.902;2022-11-02T03:03:28;96769.59;;;3.92;100.00
2192;BME280;1102;49.718;11.902;2022-11-02T03:06:03;96830.38;;;4.18;100.00
2192;BME280;1102;49.718;11.902;2022-11-02T03:08:35;96760.75;;;3.88;100.00
2192;BME280;1102;49.718;11.902;2022-11-02T03:11:17;96834.69;;;4.38;100.00
2192;BME280;1102;49.718;11.902;2022-11-02T03:14:12;96835.06;;;4.21;100.00
2192;BME280;1102;49.718;11.902;2022-11-02T03:17:12;96790.31;;;3.89;100.00
2192;BME280;1102;49.718;11.902;2022-11-02T03:23:07;96824.59;;;4.21;100.00
2192;BME280;1102;49.718;11.902;2022-11-02T03:31:40;96837.69;;;3.72;100.00
2192;BME280;1102;49.718;11.902;2022-11-02T03:34:14;96837.97;;;3.70;100.00
2192;BME280;1102;49.718;11.902;2022-11-02T03:36:55;96826.22;;;3.68;100.00
2192;BME280;1102;49.718;11.902;2022-11-02T03:39:33;96824.84;;;3.80;100.00
2192;BME280;1102;49.718;11.902;2022-11-02T03:42:03;96796.22;;;3.55;100.00
2192;BME280;1102;49.718;11.902;2022-11-02T03:44:36;96792.34;;;3.47;100.00
2192;BME280;1102;49.718;11.902;2022-11-02T03:47:07;96813.97;;;3.63;100.00
2192;BME280;1102;49.718;11.902;2022-11-02T03:49:39;96780.06;;;3.43;100.00
2192;BME280;1102;49.718;11.902;2022-11-02T03:52:10;96831.88;;;3.85;100.00
2192;BME280;1102;49.718;11.902;2022-11-02T03:54:44;96827.25;;;3.72;100.00
2192;BME280;1102;49.718;11.902;2022-11-02T03:57:22;96786.31;;;3.52;100.00
2192;BME280;1102;49.718;11.902;2022-11-02T03:59:51;96818.13;;;3.69;100.00
2192;BME280;1102;49.718;11.902;2022-11-02T04:02:18;96809.53;;;3.59;100.00
2192;BME280;1102;49.718;11.902;2022-11-02T04:04:51;96844.50;;;3.78;100.00
2192;BME280;1102;49.718;11.902;2022-11-02T04:07:26;96847.66;;;3.70;100.00
2192;BME280;1102;49.718;11.902;2022-11-02T04:09:54;96807.00;;;3.43;100.00
2192;BME280;1102;49.718;11.902;2022-11-02T04:12:20;96813.50;;;3.46;100.00
2192;BME280;1102;49.718;11.902;2022-11-02T04:15:07;96849.00;;;3.62;100.00
2192;BME280;1102;49.718;11.902;2022-11-02T04:17:36;96775.00;;;3.02;100.00
2192;BME280;1102;49.718;11.902;2022-11-02T04:20:21;96858.16;;;3.60;100.00
2192;BME280;1102;49.718;11.902;2022-11-02T04:22:48;96829.22;;;3.41;100.00
2192;BME280;1102;49.718;11.902;2022-11-02T04:25:33;96832.88;;;3.40;100.00
2192;BME280;1102;49.718;11.902;2022-11-02T04:28:12;96803.72;;;3.12;100.00
2192;BME280;1102;49.718;11.902;2022-11-02T04:30:46;96863.72;;;3.43;100.00
2192;BME280;1102;49.718;11.902;2022-11-02T04:33:13;96838.94;;;3.25;100.00
2192;BME280;1102;49.718;11.902;2022-11-02T04:36:07;96845.75;;;3.16;100.00
2192;BME280;1102;49.718;11.902;2022-11-02T04:38:36;96867.41;;;3.26;100.00
2192;BME280;1102;49.718;11.902;2022-11-02T04:41:31;96861.22;;;2.97;100.00
2192;BME280;1102;49.718;11.902;2022-11-02T04:44:16;96875.28;;;3.06;100.00
2192;BME280;1102;49.718;11.902;2022-11-02T04:46:50;96810.84;;;2.81;100.00
2192;BME280;1102;49.718;11.902;2022-11-02T04:49:18;96868.97;;;3.33;100.00
2192;BME280;1102;49.718;11.902;2022-11-02T04:51:45;96860.91;;;3.19;100.00
2192;BME280;1102;49.718;11.902;2022-11-02T04:54:17;96845.50;;;3.12;100.00
2192;BME280;1102;49.718;11.902;2022-11-02T04:56:46;96806.91;;;2.79;100.00
2192;BME280;1102;49.718;11.902;2022-11-02T04:59:15;96812.13;;;2.89;100.00
2192;BME280;1102;49.718;11.902;2022-11-02T05:01:41;96863.78;;;3.17;100.00
2192;BME280;1102;49.718;11.902;2022-11-02T05:04:09;96847.88;;;3.04;100.00
2192;BME280;1102;49.718;11.902;2022-11-02T05:06:36;96827.81;;;2.74;100.00
2192;BME280;1102;49.718;11.902;2022-11-02T05:09:03;96819.75;;;2.70;100.00
2192;BME280;1102;49.718;11.902;2022-11-02T05:11:31;96841.94;;;2.57;100.00
2192;BME280;1102;49.718;11.902;2022-11-02T05:13:58;96846.38;;;2.72;100.00
2192;BME280;1102;49.718;11.902;2022-11-02T05:16:27;96876.63;;;3.09;100.00
2192;BME280;1102;49.718;11.902;2022-11-02T05:18:53;96875.78;;;3.18;100.00
2192;BME280;1102;49.718;11.902;2022-11-02T05:21:22;96845.81;;;2.85;100.00
2192;BME280;1102;49.718;11.902;2022-11-02T05:23:49;96836.66;;;2.93;100.00
2192;BME280;1102;49.718;11.902;2022-11-02T05:26:16;96884.72;;;2.92;100.00
2192;BME280;1102;49.718;11.902;2022-11-02T05:28:46;96891.78;;;2.81;100.00
2192;BME280;1102;49.718;11.902;2022-11-02T05:31:12;96885.75;;;2.91;100.00
2192;BME280;1102;49.718;11.902;2022-11-02T05:33:39;96878.22;;;2.74;100.00
2192;BME280;1102;49.718;11.902;2022-11-02T05:36:11;96893.59;;;2.91;100.00
2192;BME280;1102;49.718;11.902;2022-11-02T05:38:41;96851.59;;;2.62;100.00
2192;BME280;1102;49.718;11.902;2022-11-02T05:41:08;96863.56;;;2.78;100.00
2192;BME280;1102;49.718;11.902;2022-11-02T05:43:37;96804.88;;;2.40;100.00
2192;BME280;1102;49.718;11.902;2022-11-02T05:46:05;96869.59;;;2.79;100.00
2192;BME280;1102;49.718;11.902;2022-11-02T05:48:32;96738.63;;;1.85;100.00
2192;BME280;1102;49.718;11.902;2022-11-02T05:51:01;96873.00;;;2.59;100.00
2192;BME280;1102;49.718;11.902;2022-11-02T05:53:29;96824.47;;;2.27;100.00
2192;BME280;1102;49.718;11.902;2022-11-02T05:56:00;96853.91;;;2.53;100.00
2192;BME280;1102;49.718;11.902;2022-11-02T05:58:28;96901.72;;;2.94;100.00
2192;BME280;1102;49.718;11.902;2022-11-02T06:00:58;96898.84;;;2.96;100.00
2192;BME280;1102;49.718;11.902;2022-11-02T06:03:25;96906.13;;;2.99;100.00
2192;BME280;1102;49.718;11.902;2022-11-02T06:06:00;96895.19;;;2.97;100.00
2192;BME280;1102;49.718;11.902;2022-11-02T06:08:27;96855.00;;;2.67;100.00
2192;BME280;1102;49.718;11.902;2022-11-02T06:10:54;96906.38;;;3.03;100.00
2192;BME280;1102;49.718;11.902;2022-11-02T06:13:21;96885.00;;;2.85;100.00
2192;BME280;1102;49.718;11.902;2022-11-02T06:15:47;96873.25;;;2.78;100.00
2192;BME280;1102;49.718;11.902;2022-11-02T06:18:14;96856.56;;;2.69;100.00
2192;BME280;1102;49.718;11.902;2022-11-02T06:20:41;96890.72;;;2.87;100.00
2192;BME280;1102;49.718;11.902;2022-11-02T06:23:08;96844.00;;;2.65;100.00
2192;BME280;1102;49.718;11.902;2022-11-02T06:25:34;96858.38;;;2.73;100.00
2192;BME280;1102;49.718;11.902;2022-11-02T06:28:01;96901.19;;;2.87;100.00
2192;BME280;1102;49.718;11.902;2022-11-02T06:30:30;96840.38;;;2.46;100.00
2192;BME280;1102;49.718;11.902;2022-11-02T06:32:56;96869.31;;;2.75;100.00
2192;BME280;1102;49.718;11.902;2022-11-02T06:35:31;96892.03;;;2.80;100.00
2192;BME280;1102;49.718;11.902;2022-11-02T06:37:57;96884.47;;;2.73;100.00
2192;BME280;1102;49.718;11.902;2022-11-02T06:40:25;96850.56;;;2.43;100.00
2192;BME280;1102;49.718;11.902;2022-11-02T06:42:55;96895.72;;;2.69;100.00
2192;BME280;1102;49.718;11.902;2022-11-02T06:45:41;96879.00;;;2.64;100.00
2192;BME280;1102;49.718;11.902;2022-11-02T06:48:08;96915.28;;;2.91;100.00
2192;BME280;1102;49.718;11.902;2022-11-02T06:50:34;96898.31;;;2.79;100.00
2192;BME280;1102;49.718;11.902;2022-11-02T06:53:02;96852.66;;;2.56;100.00
2192;BME280;1102;49.718;11.902;2022-11-02T06:55:29;96934.84;;;3.14;100.00
2192;BME280;1102;49.718;11.902;2022-11-02T06:57:56;96944.50;;;3.14;100.00
2192;BME280;1102;49.718;11.902;2022-11-02T07:00:22;96921.53;;;3.11;100.00
2192;BME280;1102;49.718;11.902;2022-11-02T07:03:06;96955.22;;;3.28;100.00
2192;BME280;1102;49.718;11.902;2022-11-02T07:05:35;96948.94;;;3.39;100.00
2192;BME280;1102;49.718;11.902;2022-11-02T07:08:03;96919.44;;;3.18;100.00
2192;BME280;1102;49.718;11.902;2022-11-02T07:10:30;96943.94;;;3.42;100.00
2192;BME280;1102;49.718;11.902;2022-11-02T07:12:57;96954.38;;;3.52;100.00
2192;BME280;1102;49.718;11.902;2022-11-02T07:15:25;96939.00;;;3.36;100.00
2192;BME280;1102;49.718;11.902;2022-11-02T07:17:52;96953.88;;;3.61;100.00
2192;BME280;1102;49.718;11.902;2022-11-02T07:20:19;96942.63;;;3.45;100.00
2192;BME280;1102;49.718;11.902;2022-11-02T07:22:54;96957.25;;;3.61;100.00
2192;BME280;1102;49.718;11.902;2022-11-02T07:25:22;96943.97;;;3.47;100.00
2192;BME280;1102;49.718;11.902;2022-11-02T07:27:48;96912.38;;;3.23;100.00
2192;BME280;1102;49.718;11.902;2022-11-02T07:30:15;96896.41;;;3.35;100.00
2192;BME280;1102;49.718;11.902;2022-11-02T07:32:43;96960.81;;;3.85;100.00
2192;BME280;1102;49.718;11.902;2022-11-02T07:35:11;96974.97;;;3.90;100.00
2192;BME280;1102;49.718;11.902;2022-11-02T07:37:39;96926.13;;;3.65;100.00
2192;BME280;1102;49.718;11.902;2022-11-02T07:40:08;96971.25;;;4.01;100.00
2192;BME280;1102;49.718;11.902;2022-11-02T07:42:35;96914.59;;;3.76;100.00
2192;BME280;1102;49.718;11.902;2022-11-02T07:45:04;96903.38;;;3.65;100.00
2192;BME280;1102;49.718;11.902;2022-11-02T07:47:31;96952.41;;;3.99;100.00
2192;BME280;1102;49.718;11.902;2022-11-02T07:49:58;96966.97;;;4.20;100.00
2192;BME280;1102;49.718;11.902;2022-11-02T07:52:26;96980.53;;;4.27;100.00
2192;BME280;1102;49.718;11.902;2022-11-02T07:54:52;96925.72;;;4.02;100.00
2192;BME280;1102;49.718;11.902;2022-11-02T07:57:19;96958.78;;;4.37;100.00
2192;BME280;1102;49.718;11.902;2022-11-02T07:59:47;96976.22;;;4.57;100.00
2192;BME280;1102;49.718;11.902;2022-11-02T08:02:13;96938.06;;;4.45;100.00
2192;BME280;1102;49.718;11.902;2022-11-02T08:04:40;96971.94;;;4.71;100.00
2192;BME280;1102;49.718;11.902;2022-11-02T08:07:10;96930.13;;;4.56;100.00
2192;BME280;1102;49.718;11.902;2022-11-02T08:09:37;96972.75;;;5.00;100.00
2192;BME280;1102;49.718;11.902;2022-11-02T08:12:04;96975.81;;;5.13;100.00
2192;BME280;1102;49.718;11.902;2022-11-02T08:14:31;96961.88;;;5.17;100.00
2192;BME280;1102;49.718;11.902;2022-11-02T08:16:58;96942.72;;;5.22;100.00
2192;BME280;1102;49.718;11.902;2022-11-02T08:19:24;96951.13;;;5.48;100.00
2192;BME280;1102;49.718;11.902;2022-11-02T08:21:51;96922.50;;;5.51;100.00
2192;BME280;1102;49.718;11.902;2022-11-02T08:24:18;96929.63;;;5.70;100.00
2192;BME280;1102;49.718;11.902;2022-11-02T08:26:44;96944.66;;;5.88;100.00
2192;BME280;1102;49.718;11.902;2022-11-02T08:29:15;96944.56;;;5.98;100.00
2192;BME280;1102;49.718;11.902;2022-11-02T08:31:41;96980.88;;;6.34;100.00
2192;BME280;1102;49.718;11.902;2022-11-02T08:34:08;96953.72;;;6.43;100.00
2192;BME280;1102;49.718;11.902;2022-11-02T08:36:37;96984.13;;;6.68;100.00
2192;BME280;1102;49.718;11.902;2022-11-02T08:41:50;96986.94;;;6.91;100.00
2192;BME280;1102;49.718;11.902;2022-11-02T08:44:17;96975.91;;;6.89;100.00
2192;BME280;1102;49.718;11.902;2022-11-02T08:46:44;96959.22;;;6.79;100.00
2192;BME280;1102;49.718;11.902;2022-11-02T08:49:11;96947.44;;;6.77;100.00
2192;BME280;1102;49.718;11.902;2022-11-02T08:51:37;96954.13;;;6.69;100.00
2192;BME280;1102;49.718;11.902;2022-11-02T08:54:04;96943.47;;;6.79;100.00
2192;BME280;1102;49.718;11.902;2022-11-02T08:56:30;96967.00;;;7.03;100.00
2192;BME280;1102;49.718;11.902;2022-11-02T08:58:57;96922.63;;;7.02;100.00
2192;BME280;1102;49.718;11.902;2022-11-02T09:01:24;96977.97;;;7.57;100.00
2192;BME280;1102;49.718;11.902;2022-11-02T09:03:50;96978.66;;;7.62;100.00
2192;BME280;1102;49.718;11.902;2022-11-02T09:06:17;96973.41;;;7.62;100.00
2192;BME280;1102;49.718;11.902;2022-11-02T09:08:44;96942.31;;;7.64;100.00
2192;BME280;1102;49.718;11.902;2022-11-02T09:11:10;96956.94;;;7.98;100.00
2192;BME280;1102;49.718;11.902;2022-11-02T09:13:38;96995.84;;;8.56;100.00
2192;BME280;1102;49.718;11.902;2022-11-02T09:16:05;96969.25;;;8.66;100.00
2192;BME280;1102;49.718;11.902;2022-11-02T09:18:31;96999.88;;;9.12;100.00
2192;BME280;1102;49.718;11.902;2022-11-02T09:21:03;97007.81;;;9.43;100.00
2192;BME280;1102;49.718;11.902;2022-11-02T09:23:30;97011.75;;;9.76;100.00
2192;BME280;1102;49.718;11.902;2022-11-02T09:25:57;97023.00;;;9.91;100.00
2192;BME280;1102;49.718;11.902;2022-11-02T09:28:25;97027.56;;;10.07;100.00
2192;BME280;1102;49.718;11.902;2022-11-02T09:30:52;96999.72;;;10.01;100.00
2192;BME280;1102;49.718;11.902;2022-11-02T09:33:18;97016.22;;;10.07;100.00
2192;BME280;1102;49.718;11.902;2022-11-02T09:35:47;96981.16;;;9.84;100.00
2192;BME280;1102;49.718;11.902;2022-11-02T09:38:15;96938.19;;;9.61;100.00
2192;BME280;1102;49.718;11.902;2022-11-02T09:41:34;96983.53;;;9.94;100.00
2192;BME280;1102;49.718;11.902;2022-11-02T09:46:16;96992.41;;;9.98;100.00
2192;BME280;1102;49.718;11.902;2022-11-02T09:48:52;97037.16;;;10.34;100.00
2192;BME280;1102;49.718;11.902;2022-11-02T09:51:23;97018.03;;;10.29;100.00
2192;BME280;1102;49.718;11.902;2022-11-02T09:54:00;97047.00;;;10.51;100.00
2192;BME280;1102;49.718;11.902;2022-11-02T09:56:32;97047.34;;;10.58;100.00
2192;BME280;1102;49.718;11.902;2022-11-02T09:59:03;97047.78;;;10.52;100.00
2192;BME280;1102;49.718;11.902;2022-11-02T10:07:08;97046.28;;;10.20;100.00
2192;BME280;1102;49.718;11.902;2022-11-02T10:09:52;97059.06;;;10.26;100.00
2192;BME280;1102;49.718;11.902;2022-11-02T10:12:47;97057.50;;;10.25;100.00
2192;BME280;1102;49.718;11.902;2022-11-02T10:17:45;97069.53;;;10.09;100.00
2192;BME280;1102;49.718;11.902;2022-11-02T10:20:46;97045.13;;;10.03;100.00
2192;BME280;1102;49.718;11.902;2022-11-02T10:26:35;96901.22;;;9.22;100.00
2192;BME280;1102;49.718;11.902;2022-11-02T10:29:25;96997.47;;;9.77;100.00
2192;BME280;1102;49.718;11.902;2022-11-02T10:31:55;97022.28;;;10.07;100.00
2192;BME280;1102;49.718;11.902;2022-11-02T10:34:26;97051.78;;;10.32;100.00
2192;BME280;1102;49.718;11.902;2022-11-02T10:37:31;97044.34;;;10.43;100.00
2192;BME280;1102;49.718;11.902;2022-11-02T10:40:28;97041.91;;;10.63;100.00
2192;BME280;1102;49.718;11.902;2022-11-02T10:46:15;97048.00;;;10.73;100.00
2192;BME280;1102;49.718;11.902;2022-11-02T10:51:19;97048.00;;;10.90;100.00
2192;BME280;1102;49.718;11.902;2022-11-02T10:53:48;97062.97;;;11.03;100.00
2192;BME280;1102;49.718;11.902;2022-11-02T10:56:23;97055.78;;;10.95;100.00
2192;BME280;1102;49.718;11.902;2022-11-02T10:59:13;97051.63;;;11.11;100.00
2192;BME280;1102;49.718;11.902;2022-11-02T11:04:27;97026.53;;;11.00;100.00
2192;BME280;1102;49.718;11.902;2022-11-02T11:06:54;97050.38;;;11.26;100.00
2192;BME280;1102;49.718;11.902;2022-11-02T11:09:27;97042.25;;;11.40;100.00
2192;BME280;1102;49.718;11.902;2022-11-02T11:12:14;97047.56;;;11.40;100.00
2192;BME280;1102;49.718;11.902;2022-11-02T11:14:50;97035.44;;;11.13;100.00
2192;BME280;1102;49.718;11.902;2022-11-02T11:17:39;97034.16;;;10.93;100.00
2192;BME280;1102;49.718;11.902;2022-11-02T11:20:35;97027.78;;;11.03;100.00
2192;BME280;1102;49.718;11.902;2022-11-02T11:25:34;97054.25;;;11.11;100.00
2192;BME280;1102;49.718;11.902;2022-11-02T11:28:00;97041.47;;;11.05;100.00
2192;BME280;1102;49.718;11.902;2022-11-02T11:30:30;97029.50;;;11.07;100.00
2192;BME280;1102;49.718;11.902;2022-11-02T11:33:19;97025.91;;;11.20;100.00
2192;BME280;1102;49.718;11.902;2022-11-02T11:35:48;97041.19;;;11.23;100.00
2192;BME280;1102;49.718;11.902;2022-11-02T11:38:23;97043.66;;;11.29;100.00
2192;BME280;1102;49.718;11.902;2022-11-02T11:40:57;97034.03;;;11.15;100.00
2192;BME280;1102;49.718;11.902;2022-11-02T11:43:27;97048.19;;;11.37;100.00
2192;BME280;1102;49.718;11.902;2022-11-02T11:45:57;96925.84;;;10.62;100.00
2192;BME280;1102;49.718;11.902;2022-11-02T11:48:41;97049.72;;;11.46;100.00
2192;BME280;1102;49.718;11.902;2022-11-02T11:51:38;97038.81;;;11.57;100.00
2192;BME280;1102;49.718;11.902;2022-11-02T11:56:43;97045.00;;;11.78;100.00
2192;BME280;1102;49.718;11.902;2022-11-02T11:59:25;97034.13;;;11.62;100.00
2192;BME280;1102;49.718;11.902;2022-11-02T12:01:58;97013.41;;;11.47;100.00
2192;BME280;1102;49.718;11.902;2022-11-02T12:04:34;97021.19;;;11.61;100.00
2192;BME280;1102;49.718;11.902;2022-11-02T12:15:22;97028.72;;;12.43;100.00
2192;BME280;1102;49.718;11.902;2022-11-02T12:26:43;97064.19;;;13.52;100.00
2192;BME280;1102;49.718;11.902;2022-11-02T12:32:00;97059.47;;;12.65;100.00
2192;BME280;1102;49.718;11.902;2022-11-02T12:48:32;97006.22;;;11.65;100.00
2192;BME280;1102;49.718;11.902;2022-11-02T12:51:13;97052.84;;;12.12;100.00
2192;BME280;1102;49.718;11.902;2022-11-02T12:53:56;97046.06;;;11.94;100.00
2192;BME280;1102;49.718;11.902;2022-11-02T12:56:30;97048.09;;;12.65;100.00
2192;BME280;1102;49.718;11.902;2022-11-02T12:59:00;96945.00;;;11.66;100.00
2192;BME280;1102;49.718;11.902;2022-11-02T13:01:34;97068.50;;;12.73;100.00
2192;BME280;1102;49.718;11.902;2022-11-02T13:05:23;96904.56;;;12.58;100.00
2192;BME280;1102;49.718;11.902;2022-11-02T13:07:32;97036.41;;;13.61;98.84
2192;BME280;1102;49.718;11.902;2022-11-02T13:10:16;97047.72;;;14.04;94.20
2192;BME280;1102;49.718;11.902;2022-11-02T13:12:49;97037.41;;;13.57;93.92
2192;BME280;1102;49.718;11.902;2022-11-02T13:15:19;96895.56;;;13.25;92.39
2192;BME280;1102;49.718;11.902;2022-11-02T13:20:48;97036.31;;;14.28;89.85
2192;BME280;1102;49.718;11.902;2022-11-02T13:23:36;97049.50;;;14.12;89.76
2192;BME280;1102;49.718;11.902;2022-11-02T13:26:25;97060.81;;;14.33;89.48
2192;BME280;1102;49.718;11.902;2022-11-02T13:28:55;97047.72;;;14.04;88.68
2192;BME280;1102;49.718;11.902;2022-11-02T13:31:29;97025.88;;;14.10;88.67
2192;BME280;1102;49.718;11.902;2022-11-02T13:34:01;97012.59;;;14.35;87.96
2192;BME280;1102;49.718;11.902;2022-11-02T13:36:30;97026.53;;;14.81;86.64
2192;BME280;1102;49.718;11.902;2022-11-02T13:39:26;97049.59;;;14.15;89.78
2192;BME280;1102;49.718;11.902;2022-11-02T13:44:44;97054.84;;;14.85;87.91
2192;BME280;1102;49.718;11.902;2022-11-02T13:47:53;96996.31;;;14.61;87.75
2192;BME280;1102;49.718;11.902;2022-11-02T13:50:26;97044.31;;;14.76;86.55
2192;BME280;1102;49.718;11.902;2022-11-02T13:55:26;97054.19;;;14.64;87.68
2192;BME280;1102;49.718;11.902;2022-11-02T13:57:59;96974.69;;;14.13;88.40
2192;BME280;1102;49.718;11.902;2022-11-02T14:00:30;97045.19;;;14.68;88.10
2192;BME280;1102;49.718;11.902;2022-11-02T14:03:11;97036.00;;;14.29;86.44
2192;BME280;1102;49.718;11.902;2022-11-02T14:05:51;97010.03;;;14.38;86.47
2192;BME280;1102;49.718;11.902;2022-11-02T14:08:33;97052.97;;;14.73;86.19
2192;BME280;1102;49.718;11.902;2022-11-02T14:11:25;97056.94;;;14.79;84.07
2192;BME280;1102;49.718;11.902;2022-11-02T14:38:42;97040.72;;;14.97;84.65
2192;BME280;1102;49.718;11.902;2022-11-02T14:44:24;97075.34;;;14.97;84.00
2192;BME280;1102;49.718;11.902;2022-11-02T14:46:56;97066.34;;;15.01;84.16
2192;BME280;1102;49.718;11.902;2022-11-02T14:49:32;97020.25;;;14.24;84.90
2192;BME280;1102;49.718;11.902;2022-11-02T14:52:03;97019.41;;;14.44;85.01
2192;BME280;1102;49.718;11.902;2022-11-02T14:54:37;97077.78;;;14.90;84.40
2192;BME280;1102;49.718;11.902;2022-11-02T14:57:21;97068.97;;;15.14;83.25
2192;BME280;1102;49.718;11.902;2022-11-02T14:59:51;97063.34;;;15.03;82.63
2192;BME280;1102;49.718;11.902;2022-11-02T15:04:58;97065.03;;;14.34;85.14
2192;BME280;1102;49.718;11.902;2022-11-02T15:07:48;97074.19;;;14.12;86.51
2192;BME280;1102;49.718;11.902;2022-11-02T15:12:44;97037.31;;;12.70;91.72
2192;BME280;1102;49.718;11.902;2022-11-02T15:15:34;97055.63;;;12.25;97.09
2192;BME280;1102;49.718;11.902;2022-11-02T15:24:00;97045.06;;;11.43;100.00
2192;BME280;1102;49.718;11.902;2022-11-02T15:31:53;97034.63;;;10.95;100.00
2192;BME280;1102;49.718;11.902;2022-11-02T15:34:36;97021.09;;;10.71;100.00
2192;BME280;1102;49.718;11.902;2022-11-02T15:37:06;97068.06;;;10.74;100.00
2192;BME280;1102;49.718;11.902;2022-11-02T15:39:34;97057.56;;;10.43;100.00
2192;BME280;1102;49.718;11.902;2022-11-02T15:45:35;97080.09;;;10.40;100.00
2192;BME280;1102;49.718;11.902;2022-11-02T15:48:36;97064.38;;;10.35;100.00
2192;BME280;1102;49.718;11.902;2022-11-02T15:56:37;97032.00;;;9.90;100.00
2192;BME280;1102;49.718;11.902;2022-11-02T16:04:47;97025.50;;;9.65;100.00
2192;BME280;1102;49.718;11.902;2022-11-02T16:07:16;97039.91;;;9.59;100.00
2192;BME280;1102;49.718;11.902;2022-11-02T16:09:44;96980.31;;;9.13;100.00
2192;BME280;1102;49.718;11.902;2022-11-02T16:12:14;97042.75;;;9.40;100.00
2192;BME280;1102;49.718;11.902;2022-11-02T16:14:57;97045.44;;;9.48;100.00